Data for 07/28/2007

Time Sea-Level Adjusted Pressure Absolute Pressure Temperature Relative Humidity Dew Point   
(mb) (inHg) (mb) (inHg) (C) (F) (%) (C) (F)
00:05 1020 30.12 849 25.07 19.6 67.2 46 7.9 46.2
00:10 1020 30.12 849 25.07 19.4 66.9 47 7.9 46.2
00:15 1020 30.12 849 25.07 19.3 66.7 47 7.9 46.1
00:20 1020 30.12 849 25.07 19 66.2 51 8.7 47.7
00:25 1020 30.12 849 25.07 19 66.2 46 7.4 45.3
00:30 1020 30.12 849 25.07 19.4 66.8 46 7.5 45.5
00:35 1020 30.12 849 25.07 18.9 66 47 7.6 45.7
00:40 1020 30.12 849 25.07 18.7 65.6 47 7.2 44.9
00:45 1020 30.12 849 25.07 18.8 65.8 46 7.1 44.9
00:50 1020 30.12 849 25.07 19 66.1 47 7.4 45.4
00:55 1020 30.12 849 25.07 18.6 65.5 47 7.2 44.9
01:00 1020 30.12 849 25.07 18.5 65.3 48 7.5 45.6
01:05 1020 30.12 849 25.07 18.5 65.4 48 7.3 45.1
01:10 1020 30.12 849 25.07 18.4 65.1 48 7.2 45
01:15 1020 30.12 849 25.07 18.3 64.9 48 7.2 44.9
01:20 1020 30.12 849 25.07 18.1 64.6 49 7.3 45.2
01:25 1020 30.12 849 25.07 18.2 64.7 48 7.1 44.8
01:30 1020 30.12 849 25.07 18.4 65.1 47 7 44.6
01:35 1020 30.12 849 25.07 18.3 64.9 47 7 44.5
01:40 1020 30.12 849 25.07 18.4 65.1 47 7.1 44.8
01:45 1020 30.12 849 25.07 18.2 64.8 48 7.3 45.1
01:50 1020 30.12 849 25.07 18.3 64.9 47 7.1 44.7
01:55 1020 30.12 849 25.07 18.2 64.7 48 7.1 44.8
02:00 1020 30.12 849 25.07 18.2 64.8 48 7 44.7
02:05 1020 30.12 849 25.07 18.4 65 47 7.1 44.8
02:10 1020 30.12 849 25.07 18.1 64.6 49 7.3 45.2
02:15 1020 30.12 849 25.07 18.2 64.8 49 7.4 45.4
02:20 1020 30.12 849 25.07 18.1 64.6 49 7.5 45.4
02:25 1020 30.12 849 25.07 17.8 64.1 50 7.4 45.2
02:30 1020 30.12 849 25.07 17.7 63.8 50 7.2 45
02:35 1020 30.12 849 25.07 17.6 63.7 49 6.9 44.4
02:40 1020 30.12 849 25.07 17.7 63.8 49 6.9 44.3
02:45 1020 30.12 849 25.07 17.7 63.9 49 7 44.5
02:50 1020 30.12 849 25.07 17.6 63.7 49 6.9 44.3
02:55 1020 30.12 849 25.07 17.6 63.6 49 6.8 44.3
03:00 1020 30.12 849 25.07 17.5 63.5 49 6.9 44.4
03:05 1020 30.12 849 25.07 17.6 63.7 48 6.6 43.8
03:10 1020 30.12 849 25.07 17.8 64 48 6.6 43.9
03:15 1020 30.12 849 25.07 17.7 63.9 49 7.1 44.7
03:20 1020 30.12 849 25.07 17.6 63.6 48 6.5 43.7
03:25 1020 30.12 849 25.07 17.7 63.8 49 6.9 44.4
03:30 1020 30.12 849 25.07 17.5 63.6 49 6.9 44.5
03:35 1020 30.12 849 25.07 17.2 62.9 51 7 44.5
03:40 1020 30.12 849 25.07 16.5 61.7 54 7.2 44.9
03:45 1020 30.12 849 25.07 16 60.8 55 7 44.6
03:50 1020 30.12 849 25.07 16.4 61.5 50 6 42.8
03:55 1020 30.12 849 25.07 16.9 62.5 49 6.3 43.3
04:00 1020 30.12 849 25.07 17.4 63.3 49 6.6 43.8
04:05 1020 30.12 849 25.07 17.5 63.5 50 7 44.7
04:10 1020 30.12 849 25.07 17.2 63 51 7.2 45
04:15 1020 30.12 849 25.07 17.2 62.9 51 7 44.6
04:20 1020 30.12 849 25.07 17.1 62.7 51 7.1 44.7
04:25 1020 30.12 849 25.07 16.8 62.2 52 7 44.6
04:30 1020 30.12 849 25.07 16.3 61.4 52 6.6 44
04:35 1020 30.12 849 25.07 16.6 61.9 48 5.7 42.3
04:40 1020 30.12 849 25.07 17.3 63.2 47 6 42.9
04:45 1020 30.12 849 25.07 17.7 63.8 46 6 42.7
04:50 1020 30.12 849 25.07 17.8 64 51 7.7 45.8
04:55 1020 30.12 849 25.07 17.2 62.9 48 6.2 43.1
05:00 1020 30.12 849 25.07 17.5 63.5 46 5.9 42.5
05:05 1020 30.12 849 25.07 17.2 63 49 6.6 43.9
05:10 1020 30.12 849 25.07 16.2 61.2 51 6.2 43.2
05:15 1020 30.12 849 25.07 15.9 60.7 51 6 42.8
05:20 1020 30.12 850 25.1 15.9 60.7 53 6.4 43.5
05:25 1020 30.12 849 25.07 16 60.8 52 6.2 43.2
05:30 1020 30.12 850 25.1 15.9 60.7 52 6.1 42.9
05:35 1020 30.12 850 25.1 15.7 60.3 52 6 42.8
05:40 1020 30.12 850 25.1 16 60.8 49 5.4 41.6
05:45 1020 30.12 850 25.1 16.9 62.4 47 5.5 41.8
05:50 1020 30.12 850 25.1 17.1 62.7 47 5.9 42.6
05:55 1020 30.12 850 25.1 16.8 62.2 48 5.9 42.7
06:00 1020 30.12 850 25.1 16.6 61.8 50 6.3 43.3
06:05 1020 30.12 850 25.1 16.1 61 52 6.3 43.3
06:10 1020 30.12 850 25.1 15.9 60.6 51 5.9 42.6
06:15 1020 30.12 850 25.1 16.1 60.9 52 6.4 43.6
06:20 1021 30.15 850 25.1 15.4 59.8 56 6.9 44.3
06:25 1021 30.15 850 25.1 15.7 60.3 52 6 42.7
06:30 1021 30.15 850 25.1 15.9 60.7 53 6.4 43.6
06:35 1021 30.15 850 25.1 15.8 60.4 55 6.7 44.1
06:40 1021 30.15 850 25.1 15.5 59.8 55 6.6 43.9
06:45 1021 30.15 850 25.1 15.4 59.8 56 6.7 44.1
06:50 1021 30.15 850 25.1 15.3 59.6 56 6.6 43.9
06:55 1021 30.15 850 25.1 15.5 59.8 55 6.4 43.6
07:00 1021 30.15 850 25.1 15.9 60.6 52 6.1 43
07:05 1021 30.15 850 25.1 16.2 61.2 51 6 42.9
07:10 1021 30.15 850 25.1 16.5 61.6 51 6.3 43.4
07:15 1021 30.15 850 25.1 16.7 62.1 51 6.6 43.9
07:20 1021 30.15 850 25.1 16.9 62.4 53 7.2 45
07:25 1021 30.15 850 25.1 17 62.6 52 7.1 44.8
07:30 1021 30.15 850 25.1 17 62.7 53 7.5 45.5
07:35 1021 30.15 850 25.1 17.1 62.9 57 8.6 47.4
07:40 1021 30.15 850 25.1 17.5 63.5 53 8 46.5
07:45 1021 30.15 850 25.1 17.4 63.4 53 7.9 46.3
07:50 1021 30.15 850 25.1 17.4 63.3 54 8.1 46.6
07:55 1021 30.15 850 25.1 17.5 63.5 55 8.5 47.3
08:00 1021 30.15 850 25.1 17.7 63.9 53 8.3 46.9
08:05 1021 30.15 850 25.1 17.7 63.9 53 8.1 46.6
08:10 1021 30.15 850 25.1 18 64.4 53 8.3 47
08:15 1021 30.15 850 25.1 18.3 64.9 51 8 46.5
08:20 1021 30.15 850 25.1 18.8 65.8 47 7.4 45.3
08:25 1021 30.15 850 25.1 19.1 66.5 50 8.6 47.4
08:30 1021 30.15 850 25.1 19.6 67.2 51 9.2 48.5
08:35 1021 30.15 850 25.1 19.9 67.8 44 7.3 45.1
08:40 1021 30.15 850 25.1 20.2 68.3 47 8.6 47.5
08:45 1021 30.15 850 25.1 20.8 69.4 43 7.9 46.2
08:50 1021 30.15 850 25.1 21.3 70.3 40 7.2 44.9
08:55 1021 30.15 850 25.1 21.8 71.3 40 7.7 45.9
09:00 1021 30.15 850 25.1 22.4 72.3 40 8.3 47
09:05 1021 30.15 850 25.1 22.7 72.9 41 8.9 48.1
09:10 1021 30.15 850 25.1 22.7 72.9 39 8.4 47.1
09:15 1021 30.15 850 25.1 22.9 73.2 40 8.8 47.8
09:20 1021 30.15 850 25.1 22.8 73 40 8.7 47.6
09:25 1021 30.15 850 25.1 23.3 74 39 8.9 48
09:30 1021 30.15 850 25.1 23.9 75.1 37 8.5 47.4
09:35 1021 30.15 850 25.1 24 75.2 38 8.9 48
09:40 1021 30.15 850 25.1 24.2 75.5 37 8.9 48
09:45 1021 30.15 850 25.1 24.4 76 36 8.5 47.2
09:50 1021 30.15 850 25.1 24.8 76.7 36 9.1 48.3
09:55 1021 30.15 850 25.1 25.3 77.5 35 8.8 47.8
10:00 1021 30.15 850 25.1 25.4 77.7 35 9 48.2
10:05 1021 30.15 850 25.1 25.1 77.2 34 8.2 46.8
10:10 1021 30.15 850 25.1 25.4 77.6 34 8.5 47.4
10:15 1021 30.15 850 25.1 25.7 78.2 34 9.1 48.3
10:20 1021 30.15 850 25.1 26.2 79.1 33 8.8 47.9
10:25 1021 30.15 850 25.1 26.8 80.2 32 8.9 48
10:30 1021 30.15 850 25.1 27.3 81.2 29 8 46.4
10:35 1021 30.15 850 25.1 27 80.6 33 9.5 49
10:40 1021 30.15 850 25.1 27.3 81.1 28 7.3 45.2
10:45 1021 30.15 850 25.1 27.7 81.9 29 8.3 47
10:50 1021 30.15 850 25.1 27.5 81.5 30 8.6 47.5
10:55 1020 30.12 850 25.1 27.1 80.8 31 8.6 47.5
11:00 1020 30.12 850 25.1 27.6 81.7 28 7.9 46.2
11:05 1020 30.12 850 25.1 28.3 83 27 8.1 46.6
11:10 1020 30.12 850 25.1 28.5 83.2 28 8.3 47
11:15 1020 30.12 850 25.1 28 82.3 28 8 46.5
11:20 1020 30.12 850 25.1 28.6 83.5 27 8.3 47
11:25 1020 30.12 850 25.1 28 82.4 28 8.2 46.8
11:30 1020 30.12 850 25.1 28.1 82.6 26 7.3 45.1
11:35 1020 30.12 850 25.1 29.6 85.3 24 7.3 45.2
11:40 1020 30.12 850 25.1 30.4 86.7 24 7.9 46.2
11:45 1020 30.12 849 25.07 29.4 85 26 8 46.5
11:50 1020 30.12 849 25.07 28.8 83.8 26 7.9 46.3
11:55 1020 30.12 849 25.07 28.6 83.6 28 8.5 47.3
12:00 1020 30.12 849 25.07 29.8 85.7 24 7.4 45.2
12:05 1020 30.12 849 25.07 30.6 87.1 23 7.7 45.9
12:10 1020 30.12 849 25.07 30.9 87.6 23 7.7 45.9
12:15 1020 30.12 849 25.07 29.7 85.5 25 8.1 46.6
12:20 1020 30.12 849 25.07 30 85.9 23 7.2 45
12:25 1020 30.12 849 25.07 31.3 88.3 21 6.7 44.1
12:30 1020 30.12 849 25.07 30.5 87 21 5.9 42.7
12:35 1020 30.12 849 25.07 30.6 87.1 21 6.1 42.9
12:40 1020 30.12 849 25.07 30.6 87.1 20 5.6 42.1
12:45 1020 30.12 849 25.07 31 87.9 19 4.8 40.6
12:50 1020 30.12 849 25.07 31.6 88.8 19 5.3 41.5
12:55 1020 30.12 849 25.07 32 89.6 18 5 41
13:00 1020 30.12 849 25.07 32.8 91 16 4.2 39.6
13:05 1020 30.12 849 25.07 32.9 91.1 16 4 39.3
13:10 1020 30.12 849 25.07 32.8 91 15 3.2 37.8
13:15 1019 30.09 849 25.07 32.8 91.1 16 3.9 39.1
13:20 1019 30.09 849 25.07 33 91.3 15 3.5 38.2
13:25 1019 30.09 849 25.07 32.9 91.3 15 3 37.5
13:30 1019 30.09 849 25.07 32.7 90.8 15 2.9 37.2
13:35 1019 30.09 849 25.07 31.9 89.5 16 3.5 38.2
13:40 1019 30.09 849 25.07 32.5 90.5 15 3.1 37.5
13:45 1019 30.09 848 25.04 32.3 90.1 16 3.5 38.3
13:50 1019 30.09 848 25.04 32.7 90.9 15 3.2 37.7
13:55 1019 30.09 848 25.04 33.2 91.8 15 3.6 38.4
14:00 1019 30.09 848 25.04 33.3 92 16 4.1 39.4
14:05 1019 30.09 848 25.04 33.6 92.5 14 3.2 37.7
14:10 1019 30.09 848 25.04 33.7 92.7 15 3.7 38.7
14:15 1019 30.09 848 25.04 34 93.2 14 3.2 37.8
14:20 1019 30.09 848 25.04 33.5 92.2 13 1.5 34.7
14:25 1019 30.09 848 25.04 33.3 91.9 14 2.2 35.9
14:30 1019 30.09 848 25.04 32.4 90.3 14 2.1 35.8
14:35 1019 30.09 848 25.04 32.2 89.9 15 2.5 36.6
14:40 1019 30.09 848 25.04 33.2 91.7 15 3.1 37.6
14:45 1019 30.09 848 25.04 34.1 93.4 14 2.8 37.1
14:50 1019 30.09 848 25.04 33.9 92.9 14 3.1 37.5
14:55 1019 30.09 848 25.04 33.4 92.1 13 1.5 34.7
15:00 1019 30.09 848 25.04 33.8 92.8 12 1.3 34.3
15:05 1019 30.09 848 25.04 34.2 93.5 12 0.8 33.4
15:10 1019 30.09 848 25.04 34.3 93.7 12 1.8 35.3
15:15 1019 30.09 848 25.04 34.1 93.3 13 1.8 35.3
15:20 1019 30.09 848 25.04 34.3 93.7 13 2.2 36
15:25 1019 30.09 848 25.04 33.3 92 14 2.7 36.9
15:30 1019 30.09 848 25.04 32.3 90.2 14 2.2 35.9
15:35 1019 30.09 848 25.04 32 89.6 14 2.1 35.7
15:40 1019 30.09 848 25.04 32.6 90.7 13 1.2 34.1
15:45 1019 30.09 848 25.04 32.4 90.4 14 1.7 35.1
15:50 1019 30.09 848 25.04 31.9 89.5 14 1.2 34.2
15:55 1019 30.09 848 25.04 31.9 89.3 15 2.2 36
16:00 1019 30.09 848 25.04 30.9 87.6 19 5.2 41.3
16:05 1019 30.09 848 25.04 29.5 85 21 5 41
16:10 1019 30.09 848 25.04 29.4 84.9 22 5.7 42.2
16:15 1019 30.09 848 25.04 29.1 84.3 22 5.5 41.9
16:20 1019 30.09 848 25.04 29.2 84.5 21 4.8 40.7
16:25 1018 30.06 848 25.04 29.7 85.4 22 5.9 42.5
16:30 1018 30.06 848 25.04 30 86.1 21 5.5 41.9
16:35 1018 30.06 848 25.04 30.7 87.2 19 5.1 41.2
16:40 1018 30.06 848 25.04 31.1 88.1 15 1.9 35.5
16:45 1018 30.06 848 25.04 31.5 88.7 15 1.9 35.3
16:50 1018 30.06 848 25.04 31.3 88.4 15 1.9 35.4
16:55 1018 30.06 848 25.04 31.2 88.1 14 0.9 33.7
17:00 1018 30.06 847 25.01 31.4 88.5 15 2.4 36.2
17:05 1018 30.06 847 25.01 32 89.5 13 0.3 32.6
17:10 1018 30.06 847 25.01 32.2 90 12 -0.7 30.7
17:15 1018 30.06 847 25.01 32.3 90.1 13 0.8 33.5
17:20 1018 30.06 847 25.01 32.1 89.8 13 0.9 33.7
17:25 1018 30.06 847 25.01 31.3 88.3 14 0.6 33.1
17:30 1018 30.06 847 25.01 31.3 88.3 13 0.1 32.3
17:35 1018 30.06 847 25.01 31.4 88.4 14 1.2 34.2
17:40 1018 30.06 847 25.01 31.6 88.9 12 -0.9 30.4
17:45 1018 30.06 847 25.01 31.8 89.2 14 1.4 34.5
17:50 1018 30.06 847 25.01 31.7 89.1 12 -0.8 30.5
17:55 1018 30.06 847 25.01 32.1 89.7 12 -0.6 31
18:00 1018 30.06 847 25.01 32.5 90.4 12 0 32.1
18:05 1018 30.06 847 25.01 32.5 90.5 12 0.4 32.7
18:10 1018 30.06 847 25.01 32.7 90.8 13 0.6 33.2
18:15 1018 30.06 847 25.01 32.1 89.7 14 1.2 34.2
18:20 1018 30.06 847 25.01 31.6 89 15 1.8 35.3
18:25 1018 30.06 847 25.01 31.2 88.1 16 2.4 36.3
18:30 1018 30.06 847 25.01 31 87.8 20 5.6 42.1
18:35 1018 30.06 847 25.01 31 87.9 16 2.8 37.1
18:40 1018 30.06 847 25.01 31.1 88 16 2.8 37.1
18:45 1018 30.06 847 25.01 31.1 87.9 15 2 35.7
18:50 1018 30.06 847 25.01 31.1 87.9 18 4 39.1
18:55 1017 30.03 847 25.01 31.3 88.3 14 1.2 34.2
19:00 1017 30.03 847 25.01 31.1 87.9 16 3 37.5
19:05 1017 30.03 847 25.01 30.9 87.7 14 1 33.8
19:10 1017 30.03 847 25.01 30.9 87.6 16 2.7 36.8
19:15 1017 30.03 847 25.01 30.6 87.1 18 3.6 38.5
19:20 1017 30.03 847 25.01 30.5 86.9 18 3.9 39
19:25 1017 30.03 847 25.01 30.5 87 16 2.3 36.1
19:30 1017 30.03 847 25.01 30.6 87 19 4.7 40.4
19:35 1017 30.03 846 24.98 30.6 87 19 4.4 39.8
19:40 1017 30.03 846 24.98 30.6 87 20 5.3 41.5
19:45 1017 30.03 847 25.01 30.3 86.6 18 3.9 39.1
19:50 1017 30.03 846 24.98 30.1 86.2 20 5.3 41.6
19:55 1017 30.03 846 24.98 29.8 85.7 23 6.8 44.3
20:00 1017 30.03 847 25.01 29.6 85.3 24 7.5 45.5
20:05 1017 30.03 847 25.01 29.3 84.7 29 9.6 49.2
20:10 1017 30.03 847 25.01 28.9 84 28 8.7 47.7
20:15 1017 30.03 847 25.01 28.8 83.9 28 8.8 47.8
20:20 1017 30.03 847 25.01 28.6 83.5 29 9.4 48.8
20:25 1017 30.03 847 25.01 28.2 82.7 31 9.8 49.7
20:30 1017 30.03 847 25.01 27.9 82.2 32 10.1 50.2
20:35 1017 30.03 847 25.01 27.4 81.3 29 8.3 47
20:40 1017 30.03 847 25.01 26.8 80.2 31 8.7 47.6
20:45 1017 30.03 847 25.01 26 78.9 34 9.1 48.4
20:50 1017 30.03 847 25.01 25.8 78.5 34 9.2 48.5
20:55 1017 30.03 847 25.01 25.5 78 36 9.7 49.5
21:00 1017 30.03 847 25.01 25.1 77.3 38 10.1 50.1
21:05 1017 30.03 847 25.01 24.9 76.9 38 9.8 49.6
21:10 1017 30.03 847 25.01 24.9 76.7 32 7.2 45
21:15 1018 30.06 847 25.01 24.2 75.6 33 7.3 45.1
21:20 1018 30.06 847 25.01 23.7 74.7 34 7.1 44.9
21:25 1018 30.06 847 25.01 23.5 74.3 34 6.9 44.4
21:30 1018 30.06 847 25.01 23.7 74.6 32 6.1 43
21:35 1018 30.06 847 25.01 23.7 74.7 32 6.1 43
21:40 1018 30.06 847 25.01 24 75.2 30 5.4 41.7
21:45 1018 30.06 847 25.01 24.4 75.8 29 5.3 41.6
21:50 1018 30.06 847 25.01 24.4 76 30 5.8 42.5
21:55 1018 30.06 847 25.01 24.2 75.6 30 5.7 42.2
22:00 1018 30.06 847 25.01 24.2 75.5 33 7 44.6
22:05 1018 30.06 847 25.01 23.8 74.8 31 5.7 42.2
22:10 1018 30.06 847 25.01 23.6 74.4 30 5.3 41.6
22:15 1018 30.06 847 25.01 23.7 74.6 30 5.3 41.6
22:20 1018 30.06 847 25.01 23.7 74.7 30 5.5 42
22:25 1018 30.06 847 25.01 23.3 73.9 35 7.3 45.1
22:30 1018 30.06 847 25.01 23.4 74 31 5.3 41.5
22:35 1018 30.06 847 25.01 23.7 74.6 30 5.3 41.6
22:40 1018 30.06 847 25.01 23.8 74.8 31 6 42.9
22:45 1018 30.06 847 25.01 23.7 74.6 30 5.5 41.9
22:50 1018 30.06 848 25.04 23.5 74.2 31 5.8 42.4
22:55 1018 30.06 848 25.04 23.2 73.8 31 5.4 41.7
23:00 1019 30.09 848 25.04 23.5 74.3 30 5.1 41.1
23:05 1019 30.09 848 25.04 23.6 74.5 32 6.1 43
23:10 1019 30.09 848 25.04 23.6 74.5 31 5.8 42.5
23:15 1019 30.09 848 25.04 23.7 74.7 29 4.8 40.6
23:20 1019 30.09 848 25.04 24 75.1 29 5.1 41.2
23:25 1019 30.09 848 25.04 23.6 74.5 30 5.1 41.2
23:30 1019 30.09 848 25.04 23.2 73.8 31 5.2 41.4
23:35 1019 30.09 848 25.04 22.8 73.1 32 5.4 41.8
23:40 1019 30.09 848 25.04 22.6 72.6 33 5.6 42
23:45 1019 30.09 848 25.04 22.7 72.8 33 5.6 42.1
23:50 1019 30.09 848 25.04 22.7 72.8 32 5.4 41.6
23:55 1019 30.09 848 25.04 22.7 72.8 32 5.3 41.5
24:00 1019 30.09 848 25.04 22.7 72.9 32 5.5 41.9